首页
METAR-TAF:

METAR-TAF

机场 :

Bearce Airport

Mount Ida, 阿肯色州, 美国

纬度: 34-33N, 经度: 093-35W, 海拔: 214米

当前天气观测

该预报发布于17分钟前的18:04 UTC
风速3节,风向多变
温度 22°C
湿度 88%
气压 1006 hPa
能見度: 11.3公里
多云层高于1900英尺
多云层高于2600英尺
阴天层高于3400英尺
小雨

METAR: KMWT 281804Z AUTO VRB03KT 7SM -RA BKN019 BKN026 OVC034 22/20 A2972 RMK AO2 P0003 T02220200

时间: 13:21 (18:21 UTC)


TAF: 丢失

超过4000个机场的气象观测和天气预报(METAR&TAF报告)。

可查询的气象台以黄色和红色小点在地图上表示。

将鼠标移到小点上方,可查看气象台名称。

然后点击查看天气观测和预报。

如需切换地图:点击带黑十字的绿色按钮放大地图;点击带横线的绿色按钮缩小地图;或者点击绿色箭头查看邻近地区的地图。


METAR-TAF: